createdAt,value
2023-05-19T00:01:16.742Z,16.40
2023-05-19T00:03:52.907Z,16.10
2023-05-19T00:06:27.882Z,16.30
2023-05-19T00:09:04.448Z,16.20
2023-05-19T00:11:31.874Z,16.30
2023-05-19T00:13:59.962Z,16.20
2023-05-19T00:16:28.199Z,16.20
2023-05-19T00:18:57.173Z,16.20
2023-05-19T00:21:24.039Z,16.10
2023-05-19T00:23:50.849Z,16.10
2023-05-19T00:26:17.934Z,16.10
2023-05-19T00:28:44.804Z,16.20
2023-05-19T00:31:11.655Z,16.20
2023-05-19T00:33:38.551Z,16.20
2023-05-19T00:36:05.873Z,16.10
2023-05-19T00:38:37.982Z,16.10
2023-05-19T00:41:05.668Z,16.00
2023-05-19T00:43:36.365Z,16.10
2023-05-19T00:46:03.770Z,16.10
2023-05-19T00:48:30.653Z,16.10
2023-05-19T00:51:04.117Z,16.10
2023-05-19T00:53:33.542Z,16.20
2023-05-19T00:56:01.878Z,16.10
2023-05-19T00:58:30.696Z,16.10
2023-05-19T01:01:03.282Z,16.10
2023-05-19T01:03:37.399Z,16.10
2023-05-19T01:06:08.328Z,16.20
2023-05-19T01:08:37.437Z,16.20
2023-05-19T01:11:08.235Z,16.10
2023-05-19T01:13:36.316Z,16.10
2023-05-19T01:16:12.444Z,16.10
2023-05-19T01:18:56.333Z,16.10
2023-05-19T01:21:56.322Z,16.20
2023-05-19T01:25:11.073Z,16.10
2023-05-19T01:28:15.169Z,16.10
2023-05-19T01:30:44.107Z,16.10
2023-05-19T01:33:16.790Z,16.00
2023-05-19T01:35:44.536Z,16.00
2023-05-19T01:38:13.117Z,15.90
2023-05-19T01:40:41.758Z,15.90
2023-05-19T01:43:11.026Z,15.90
2023-05-19T01:45:38.360Z,15.90
2023-05-19T01:48:08.554Z,15.90
2023-05-19T01:50:37.917Z,15.90
2023-05-19T01:53:05.041Z,15.90
2023-05-19T01:55:31.911Z,15.90
2023-05-19T01:58:31.200Z,15.80
2023-05-19T02:01:22.596Z,15.80
2023-05-19T02:04:24.920Z,15.80
2023-05-19T02:07:15.794Z,15.80
2023-05-19T02:09:48.360Z,15.80
2023-05-19T02:12:28.904Z,15.80
2023-05-19T02:15:11.989Z,15.80
2023-05-19T02:17:42.291Z,15.80
2023-05-19T02:20:10.239Z,15.80
2023-05-19T02:22:37.502Z,15.80
2023-05-19T02:25:04.699Z,15.80
2023-05-19T02:27:31.708Z,15.80
2023-05-19T02:29:58.647Z,15.70
2023-05-19T02:32:25.556Z,15.70
2023-05-19T02:34:53.371Z,15.70
2023-05-19T02:37:23.814Z,15.70
2023-05-19T02:39:50.805Z,15.80
2023-05-19T02:42:18.357Z,15.70
2023-05-19T02:44:45.147Z,15.70
2023-05-19T02:47:12.426Z,15.70
2023-05-19T02:49:39.312Z,15.70
2023-05-19T02:52:07.039Z,15.70
2023-05-19T02:54:35.000Z,15.70
2023-05-19T02:57:02.158Z,15.70
2023-05-19T02:59:28.968Z,15.70
2023-05-19T03:02:02.287Z,15.70
2023-05-19T03:04:30.085Z,15.70
2023-05-19T03:06:57.814Z,15.70
2023-05-19T03:09:24.855Z,15.70
2023-05-19T03:11:51.726Z,15.70
2023-05-19T03:14:18.794Z,15.70
2023-05-19T03:16:45.984Z,15.70
2023-05-19T03:19:13.026Z,15.70
2023-05-19T03:21:39.909Z,15.60
2023-05-19T03:24:07.250Z,15.70
2023-05-19T03:26:33.994Z,15.60
2023-05-19T03:29:01.170Z,15.60
2023-05-19T03:31:30.613Z,15.60
2023-05-19T03:34:00.176Z,15.60
2023-05-19T03:36:32.152Z,15.60
2023-05-19T03:38:59.560Z,15.60
2023-05-19T03:41:26.659Z,15.60
2023-05-19T03:43:53.486Z,15.60
2023-05-19T03:46:20.611Z,15.60
2023-05-19T03:48:47.631Z,15.60
2023-05-19T03:51:14.461Z,15.70
2023-05-19T03:53:41.395Z,15.60
2023-05-19T03:56:08.919Z,15.60
2023-05-19T03:58:37.071Z,15.60
2023-05-19T04:01:03.927Z,15.60
2023-05-19T04:03:31.128Z,15.60
2023-05-19T04:05:58.060Z,15.60
2023-05-19T04:08:24.866Z,16.20
2023-05-19T04:10:51.648Z,15.60
2023-05-19T04:13:18.461Z,15.60
2023-05-19T04:15:45.685Z,15.60
2023-05-19T04:18:12.624Z,15.50
2023-05-19T04:20:39.518Z,15.50
2023-05-19T04:23:06.540Z,15.50
2023-05-19T04:25:33.642Z,15.50
2023-05-19T04:28:01.103Z,15.50
2023-05-19T04:30:28.753Z,15.40
2023-05-19T04:32:58.205Z,15.50
2023-05-19T04:35:25.241Z,15.60
2023-05-19T04:37:54.435Z,15.40
2023-05-19T04:40:23.683Z,15.40
2023-05-19T04:42:52.334Z,15.40
2023-05-19T04:45:19.408Z,15.40
2023-05-19T04:47:49.336Z,15.40
2023-05-19T04:50:16.972Z,15.40
2023-05-19T04:52:45.791Z,15.40
2023-05-19T04:55:13.190Z,15.40
2023-05-19T04:57:40.344Z,15.40
2023-05-19T05:00:09.574Z,15.40
2023-05-19T05:02:37.195Z,15.30
2023-05-19T05:05:04.349Z,15.40
2023-05-19T05:07:32.567Z,15.40
2023-05-19T05:09:59.769Z,15.30
2023-05-19T05:12:27.006Z,15.30
2023-05-19T05:14:54.421Z,15.30
2023-05-19T05:17:21.635Z,15.40
2023-05-19T05:19:48.800Z,15.40
2023-05-19T05:22:16.417Z,15.40
2023-05-19T05:24:43.568Z,15.40
2023-05-19T05:27:10.835Z,15.40
2023-05-19T05:29:37.674Z,15.40
2023-05-19T05:32:04.791Z,15.40
2023-05-19T05:34:31.994Z,15.40
2023-05-19T05:36:58.920Z,15.50
2023-05-19T05:39:25.764Z,15.40
2023-05-19T05:41:52.548Z,15.50
2023-05-19T05:44:19.561Z,15.50
2023-05-19T05:46:46.812Z,15.40
2023-05-19T05:49:13.773Z,15.40
2023-05-19T05:51:42.990Z,15.40
2023-05-19T05:54:13.616Z,15.40
2023-05-19T05:56:41.366Z,15.50
2023-05-19T05:59:08.211Z,15.60
2023-05-19T06:01:38.002Z,15.60
2023-05-19T06:04:04.976Z,15.80
2023-05-19T06:06:32.846Z,15.70
2023-05-19T06:08:59.837Z,15.70
2023-05-19T06:11:26.926Z,15.70
2023-05-19T06:13:53.765Z,15.70
2023-05-19T06:16:20.849Z,15.80
2023-05-19T06:18:47.709Z,15.70
2023-05-19T06:21:14.828Z,15.70
2023-05-19T06:23:42.029Z,15.80
2023-05-19T06:26:08.969Z,15.80
2023-05-19T06:28:35.806Z,15.80
2023-05-19T06:31:02.837Z,15.90
2023-05-19T06:33:29.789Z,15.90
2023-05-19T06:35:56.777Z,15.80
2023-05-19T06:38:23.576Z,15.80
2023-05-19T06:40:50.398Z,15.90
2023-05-19T06:43:17.917Z,15.90
2023-05-19T06:45:44.744Z,16.00
2023-05-19T06:48:11.876Z,16.00
2023-05-19T06:50:38.725Z,16.10
2023-05-19T06:53:06.243Z,16.10
2023-05-19T06:55:34.400Z,16.00
2023-05-19T06:58:02.488Z,16.00
2023-05-19T07:00:29.493Z,16.10
2023-05-19T07:02:56.488Z,16.10
2023-05-19T07:05:23.812Z,16.10
2023-05-19T07:07:50.780Z,16.20
2023-05-19T07:10:17.806Z,16.20
2023-05-19T07:12:44.638Z,16.30
2023-05-19T07:15:11.824Z,16.30
2023-05-19T07:17:38.830Z,16.30
2023-05-19T07:20:12.211Z,16.30
2023-05-19T07:22:40.093Z,16.40
2023-05-19T07:25:08.127Z,16.40
2023-05-19T07:27:35.155Z,16.40
2023-05-19T07:30:02.058Z,16.30
2023-05-19T07:32:29.299Z,16.30
2023-05-19T07:34:56.393Z,16.30
2023-05-19T07:37:23.463Z,16.40
2023-05-19T07:39:50.597Z,16.30
2023-05-19T07:42:17.527Z,16.30
2023-05-19T07:44:44.380Z,16.30
2023-05-19T07:47:11.217Z,16.30
2023-05-19T07:49:38.130Z,16.30
2023-05-19T07:52:05.215Z,16.40
2023-05-19T07:54:32.672Z,16.40
2023-05-19T07:56:59.771Z,16.50
2023-05-19T07:59:26.582Z,16.50
2023-05-19T08:01:53.527Z,16.40
2023-05-19T08:04:20.637Z,16.40
2023-05-19T08:06:47.562Z,16.40
2023-05-19T08:09:14.449Z,16.40
2023-05-19T08:11:41.437Z,16.50
2023-05-19T08:14:08.463Z,16.50
2023-05-19T08:16:35.600Z,16.50
2023-05-19T08:19:04.924Z,16.30
2023-05-19T08:21:34.665Z,16.40
2023-05-19T08:24:02.080Z,16.50
2023-05-19T08:26:29.294Z,16.50
2023-05-19T08:28:56.463Z,16.60
2023-05-19T08:31:23.505Z,16.60
2023-05-19T08:33:50.477Z,16.60
2023-05-19T08:36:17.350Z,16.70
2023-05-19T08:38:44.376Z,16.70
2023-05-19T08:41:11.338Z,16.60
2023-05-19T08:43:39.492Z,16.70
2023-05-19T08:46:08.303Z,16.60
2023-05-19T08:48:37.817Z,16.70
2023-05-19T08:51:33.293Z,16.70
2023-05-19T08:54:09.247Z,16.70
2023-05-19T08:56:37.775Z,16.70
2023-05-19T08:59:05.187Z,16.80
2023-05-19T09:01:32.601Z,16.80
2023-05-19T09:03:59.696Z,16.80
2023-05-19T09:06:27.270Z,16.80
2023-05-19T09:08:54.290Z,16.90
2023-05-19T09:11:22.815Z,16.90
2023-05-19T09:13:49.911Z,16.90
2023-05-19T09:16:17.976Z,16.90
2023-05-19T09:18:58.454Z,16.90
2023-05-19T09:21:31.329Z,17.00
2023-05-19T09:24:09.829Z,17.00
2023-05-19T09:26:41.123Z,17.10
2023-05-19T09:29:26.397Z,17.20
2023-05-19T09:31:56.064Z,17.10
2023-05-19T09:34:25.025Z,17.10
2023-05-19T09:36:53.606Z,17.10
2023-05-19T09:39:22.748Z,17.10
2023-05-19T09:41:54.331Z,17.20
2023-05-19T09:44:24.189Z,17.20
2023-05-19T09:46:51.853Z,17.10
2023-05-19T09:49:29.572Z,17.20
2023-05-19T09:51:58.001Z,17.20
2023-05-19T09:54:27.488Z,17.20
2023-05-19T09:56:58.949Z,17.20
2023-05-19T09:59:27.050Z,17.20
2023-05-19T10:01:58.792Z,17.20
2023-05-19T10:04:27.353Z,17.30
2023-05-19T10:06:55.807Z,17.30
2023-05-19T10:09:25.033Z,17.20
2023-05-19T10:11:56.924Z,17.30
2023-05-19T10:14:25.731Z,17.30
2023-05-19T10:16:54.168Z,17.30
2023-05-19T10:19:22.971Z,17.20
2023-05-19T10:21:50.733Z,17.20
2023-05-19T10:24:18.658Z,17.10
2023-05-19T10:27:10.238Z,17.10
2023-05-19T10:29:39.933Z,17.20
2023-05-19T10:32:17.356Z,17.20
2023-05-19T10:35:06.026Z,17.30
2023-05-19T10:38:12.953Z,17.30
2023-05-19T10:40:53.392Z,17.30
2023-05-19T10:43:44.527Z,17.30
2023-05-19T10:46:12.755Z,17.30
2023-05-19T10:48:45.561Z,17.30
2023-05-19T10:51:14.735Z,17.30
2023-05-19T10:53:46.396Z,17.30
2023-05-19T10:56:33.092Z,17.30
2023-05-19T10:59:03.357Z,17.30
2023-05-19T11:01:35.164Z,17.30
2023-05-19T11:04:07.549Z,17.30
2023-05-19T11:06:38.823Z,17.30
2023-05-19T11:09:17.942Z,17.30
2023-05-19T11:11:47.965Z,17.30
2023-05-19T11:14:19.703Z,17.40
2023-05-19T11:16:48.725Z,17.30
2023-05-19T11:19:29.796Z,17.30
2023-05-19T11:21:58.035Z,17.40
2023-05-19T11:24:35.242Z,17.40
2023-05-19T11:27:27.404Z,17.50
2023-05-19T11:29:57.149Z,17.40
2023-05-19T11:32:28.545Z,17.40
2023-05-19T11:34:56.201Z,17.40
2023-05-19T11:37:23.244Z,17.50
2023-05-19T11:39:50.118Z,17.50
2023-05-19T11:42:17.029Z,17.50
2023-05-19T11:44:48.029Z,17.50
2023-05-19T11:47:16.111Z,17.50
2023-05-19T11:49:48.656Z,17.50
2023-05-19T11:52:16.029Z,17.50
2023-05-19T11:54:43.064Z,17.50
2023-05-19T11:57:10.986Z,17.60
2023-05-19T11:59:39.311Z,17.60
2023-05-19T12:02:27.716Z,17.60
2023-05-19T12:04:55.104Z,17.60
2023-05-19T12:07:26.101Z,17.50
2023-05-19T12:09:55.501Z,17.50
2023-05-19T12:12:23.283Z,17.50
2023-05-19T12:14:53.398Z,17.50
2023-05-19T12:17:21.469Z,17.50
2023-05-19T12:19:49.799Z,17.60
2023-05-19T12:22:20.205Z,17.50
2023-05-19T12:24:47.957Z,17.60
2023-05-19T12:27:21.594Z,17.60
2023-05-19T12:29:55.069Z,17.60
2023-05-19T12:32:28.877Z,17.60
2023-05-19T12:34:58.858Z,17.60
2023-05-19T12:37:33.319Z,17.60
2023-05-19T12:40:01.443Z,17.50
2023-05-19T12:42:32.364Z,17.50
2023-05-19T12:45:02.950Z,17.60
2023-05-19T12:47:33.559Z,17.50
2023-05-19T12:50:00.410Z,17.60
2023-05-19T12:52:29.270Z,17.70
2023-05-19T12:55:06.986Z,17.70
2023-05-19T12:57:38.501Z,17.70
2023-05-19T13:00:31.348Z,17.70
2023-05-19T13:03:12.640Z,17.80
2023-05-19T13:05:43.662Z,17.80
2023-05-19T13:08:12.518Z,17.70
2023-05-19T13:10:40.904Z,17.70
2023-05-19T13:13:08.902Z,17.70
2023-05-19T13:15:39.463Z,17.70
2023-05-19T13:18:09.141Z,17.70
2023-05-19T13:20:38.066Z,17.70
2023-05-19T13:23:05.957Z,17.70
2023-05-19T13:25:36.166Z,17.70
2023-05-19T13:28:05.817Z,17.80
2023-05-19T13:30:38.023Z,17.80
2023-05-19T13:33:05.622Z,17.80
2023-05-19T13:35:39.081Z,17.80
2023-05-19T13:38:10.294Z,17.80
2023-05-19T13:40:38.201Z,17.80
2023-05-19T13:43:05.170Z,17.80
2023-05-19T13:45:32.125Z,17.90
2023-05-19T13:47:59.238Z,17.90
2023-05-19T13:50:26.517Z,17.90
2023-05-19T13:52:53.917Z,17.90
2023-05-19T13:55:21.021Z,18.00
2023-05-19T13:57:47.973Z,18.00
2023-05-19T14:00:15.411Z,18.00
2023-05-19T14:02:42.491Z,18.00
2023-05-19T14:05:09.693Z,18.00
2023-05-19T14:07:37.105Z,18.00
2023-05-19T14:10:06.883Z,18.00
2023-05-19T14:12:41.647Z,18.00
2023-05-19T14:15:14.642Z,18.00
2023-05-19T14:17:41.836Z,18.10
2023-05-19T14:20:09.747Z,18.00
2023-05-19T14:22:36.691Z,18.10
2023-05-19T14:25:03.836Z,18.10
2023-05-19T14:27:30.961Z,18.10
2023-05-19T14:29:58.212Z,18.10
2023-05-19T14:32:25.939Z,18.10
2023-05-19T14:34:54.259Z,18.10
2023-05-19T14:37:21.129Z,18.20
2023-05-19T14:39:48.111Z,18.10
2023-05-19T14:42:14.989Z,18.10
2023-05-19T14:44:41.845Z,18.20
2023-05-19T14:47:08.810Z,18.20
2023-05-19T14:49:35.768Z,18.20
2023-05-19T14:52:02.678Z,18.20
2023-05-19T14:54:29.540Z,18.20
2023-05-19T14:56:56.524Z,18.20
2023-05-19T14:59:26.710Z,18.20
2023-05-19T15:01:53.616Z,18.20
2023-05-19T15:04:20.717Z,18.20
2023-05-19T15:06:52.243Z,18.20
2023-05-19T15:09:25.532Z,18.30
2023-05-19T15:11:52.379Z,18.30
2023-05-19T15:14:19.199Z,18.20
2023-05-19T15:16:46.129Z,18.20
2023-05-19T15:19:13.046Z,18.30
2023-05-19T15:21:40.001Z,18.30
2023-05-19T15:24:07.185Z,18.30
2023-05-19T15:26:34.102Z,18.30
2023-05-19T15:29:01.148Z,18.40
2023-05-19T15:31:28.217Z,18.40
2023-05-19T15:33:55.076Z,18.40
2023-05-19T15:36:21.978Z,18.40
2023-05-19T15:38:48.859Z,18.50
2023-05-19T15:41:15.715Z,18.40
2023-05-19T15:43:42.612Z,18.40
2023-05-19T15:46:09.581Z,18.50
2023-05-19T15:48:36.405Z,18.50
2023-05-19T15:51:03.411Z,18.50
2023-05-19T15:53:30.384Z,18.50
2023-05-19T15:55:59.799Z,18.50
2023-05-19T15:58:26.705Z,18.60
2023-05-19T16:00:53.583Z,18.60
2023-05-19T16:03:22.494Z,18.60
2023-05-19T16:05:49.450Z,18.70
2023-05-19T16:08:16.296Z,18.70
2023-05-19T16:10:43.302Z,18.70
2023-05-19T16:13:10.126Z,18.70
2023-05-19T16:15:37.127Z,18.70
2023-05-19T16:18:03.985Z,18.70
2023-05-19T16:20:31.326Z,18.80
2023-05-19T16:22:58.465Z,18.80
2023-05-19T16:25:25.481Z,18.80
2023-05-19T16:27:52.728Z,18.80
2023-05-19T16:30:19.611Z,18.80
2023-05-19T16:32:46.582Z,18.80
2023-05-19T16:35:13.438Z,18.80
2023-05-19T16:37:40.522Z,18.80
2023-05-19T16:40:08.384Z,18.80
2023-05-19T16:42:35.533Z,18.80
2023-05-19T16:45:02.557Z,18.80
2023-05-19T16:47:29.508Z,18.80
2023-05-19T16:49:56.432Z,18.90
2023-05-19T16:52:23.210Z,18.90
2023-05-19T16:54:50.099Z,18.90
2023-05-19T16:57:17.042Z,18.80
2023-05-19T16:59:43.891Z,18.80
2023-05-19T17:02:10.848Z,18.80
2023-05-19T17:04:37.732Z,18.90
2023-05-19T17:07:04.783Z,18.80
2023-05-19T17:09:31.742Z,18.90
2023-05-19T17:11:59.011Z,18.90
2023-05-19T17:14:25.903Z,18.90
2023-05-19T17:16:52.774Z,18.90
2023-05-19T17:19:19.737Z,19.00
2023-05-19T17:21:46.623Z,19.00
2023-05-19T17:24:13.504Z,18.90
2023-05-19T17:26:40.464Z,18.90
2023-05-19T17:29:08.065Z,18.90
2023-05-19T17:31:34.950Z,18.90
2023-05-19T17:34:01.942Z,18.90
2023-05-19T17:36:28.925Z,18.90
2023-05-19T17:38:56.035Z,18.90
2023-05-19T17:41:22.878Z,18.90
2023-05-19T17:43:49.851Z,18.90
2023-05-19T17:46:17.813Z,18.90
2023-05-19T17:48:44.872Z,18.90
2023-05-19T17:51:12.296Z,19.60
2023-05-19T17:53:39.483Z,18.90
2023-05-19T17:56:09.598Z,18.90
2023-05-19T17:58:36.685Z,18.50
2023-05-19T18:01:03.931Z,18.80
2023-05-19T18:03:31.481Z,18.80
2023-05-19T18:05:59.174Z,18.80
2023-05-19T18:08:26.869Z,18.80
2023-05-19T18:10:55.640Z,18.80
2023-05-19T18:13:23.708Z,18.80
2023-05-19T18:15:52.612Z,18.80
2023-05-19T18:18:19.516Z,18.70
2023-05-19T18:20:46.696Z,18.70
2023-05-19T18:23:13.524Z,18.70
2023-05-19T18:25:40.291Z,18.70
2023-05-19T18:28:08.458Z,18.70
2023-05-19T18:30:35.394Z,18.70
2023-05-19T18:33:03.928Z,18.70
2023-05-19T18:35:31.040Z,18.70
2023-05-19T18:37:57.857Z,18.70
2023-05-19T18:40:24.733Z,18.70
2023-05-19T18:42:51.905Z,19.00
2023-05-19T18:45:18.968Z,18.60
2023-05-19T18:47:46.571Z,18.60
2023-05-19T18:50:14.385Z,18.60
2023-05-19T18:52:41.582Z,18.70
2023-05-19T18:55:08.809Z,18.60
2023-05-19T18:57:35.592Z,18.60
2023-05-19T19:00:02.521Z,18.60
2023-05-19T19:02:29.556Z,18.60
2023-05-19T19:04:56.462Z,18.50
2023-05-19T19:07:24.423Z,18.50
2023-05-19T19:09:51.290Z,18.90
2023-05-19T19:12:19.051Z,18.40
2023-05-19T19:14:47.150Z,18.40
2023-05-19T19:17:14.243Z,18.30
2023-05-19T19:19:41.314Z,18.30
2023-05-19T19:22:08.339Z,18.30
2023-05-19T19:24:35.851Z,18.30
2023-05-19T19:27:02.922Z,18.30
2023-05-19T19:29:29.898Z,18.30
2023-05-19T19:31:57.106Z,18.30
2023-05-19T19:34:24.066Z,18.30
2023-05-19T19:36:51.182Z,18.30
2023-05-19T19:39:18.157Z,18.30
2023-05-19T19:41:45.331Z,18.30
2023-05-19T19:44:13.542Z,18.30
2023-05-19T19:46:40.509Z,18.30
2023-05-19T19:49:07.635Z,18.30
2023-05-19T19:51:34.655Z,18.20
2023-05-19T19:54:01.552Z,18.10
2023-05-19T19:56:28.552Z,18.10
2023-05-19T19:58:59.090Z,18.10
2023-05-19T20:01:27.624Z,18.10
2023-05-19T20:03:56.032Z,18.10
2023-05-19T20:06:23.127Z,18.00
2023-05-19T20:08:49.975Z,18.00
2023-05-19T20:11:17.053Z,18.00
2023-05-19T20:13:44.253Z,18.80
2023-05-19T20:16:11.889Z,17.90
2023-05-19T20:18:39.572Z,17.90
2023-05-19T20:21:06.767Z,18.00
2023-05-19T20:23:33.890Z,18.00
2023-05-19T20:26:12.059Z,18.00
2023-05-19T20:28:40.349Z,18.00
2023-05-19T20:31:07.487Z,18.00
2023-05-19T20:33:34.633Z,18.10
2023-05-19T20:36:01.550Z,18.10
2023-05-19T20:38:28.465Z,18.10
2023-05-19T20:40:55.708Z,18.00
2023-05-19T20:43:22.997Z,18.00
2023-05-19T20:45:49.920Z,17.90
2023-05-19T20:48:16.842Z,17.80
2023-05-19T20:50:43.626Z,17.80
2023-05-19T20:53:10.741Z,17.70
2023-05-19T20:55:39.105Z,17.70
2023-05-19T20:58:06.319Z,17.70
2023-05-19T21:00:33.789Z,17.80
2023-05-19T21:03:01.416Z,17.80
2023-05-19T21:05:28.306Z,17.80
2023-05-19T21:07:55.194Z,17.80
2023-05-19T21:10:22.100Z,17.80
2023-05-19T21:12:49.364Z,17.70
2023-05-19T21:15:16.245Z,17.70
2023-05-19T21:17:43.236Z,17.60
2023-05-19T21:20:10.674Z,17.60
2023-05-19T21:22:37.560Z,17.60
2023-05-19T21:25:04.821Z,17.60
2023-05-19T21:27:32.934Z,17.60
2023-05-19T21:30:00.117Z,17.70
2023-05-19T21:32:27.851Z,17.70
2023-05-19T21:34:54.705Z,17.70
2023-05-19T21:37:21.842Z,17.70
2023-05-19T21:39:49.053Z,17.70
2023-05-19T21:42:15.898Z,17.70
2023-05-19T21:44:42.754Z,17.70
2023-05-19T21:47:09.777Z,17.70
2023-05-19T21:49:38.295Z,17.70
2023-05-19T21:52:05.933Z,17.70
2023-05-19T21:54:33.801Z,17.60
2023-05-19T21:57:00.791Z,17.50
2023-05-19T21:59:27.721Z,17.60
2023-05-19T22:01:54.575Z,17.60
2023-05-19T22:04:22.731Z,17.60
2023-05-19T22:06:49.629Z,17.50
2023-05-19T22:09:16.709Z,17.50
2023-05-19T22:11:43.584Z,17.50
2023-05-19T22:14:10.428Z,17.40
2023-05-19T22:16:37.348Z,17.40
2023-05-19T22:19:04.297Z,17.40
2023-05-19T22:21:32.025Z,17.40
2023-05-19T22:23:59.080Z,17.30
2023-05-19T22:26:26.046Z,17.40
2023-05-19T22:28:53.455Z,17.30
2023-05-19T22:31:20.708Z,17.30
2023-05-19T22:33:47.705Z,17.30
2023-05-19T22:36:16.321Z,17.30
2023-05-19T22:38:43.238Z,17.40
2023-05-19T22:41:10.079Z,17.30
2023-05-19T22:43:37.308Z,17.30
2023-05-19T22:46:04.369Z,17.30
2023-05-19T22:48:31.693Z,17.30
2023-05-19T22:50:58.622Z,17.30
2023-05-19T22:53:25.511Z,17.30
2023-05-19T22:55:52.372Z,17.20
2023-05-19T22:58:19.164Z,17.20
2023-05-19T23:00:45.959Z,17.20
2023-05-19T23:03:12.901Z,17.20
2023-05-19T23:05:40.585Z,17.20
2023-05-19T23:08:07.498Z,17.20
2023-05-19T23:10:34.414Z,17.20
2023-05-19T23:13:03.746Z,17.10
2023-05-19T23:15:30.557Z,17.10
2023-05-19T23:17:57.502Z,17.10
2023-05-19T23:20:24.384Z,17.10
2023-05-19T23:22:51.260Z,17.10
2023-05-19T23:25:18.131Z,17.10
2023-05-19T23:27:46.657Z,17.10
2023-05-19T23:30:13.508Z,17.10
2023-05-19T23:32:41.011Z,17.10
2023-05-19T23:35:16.799Z,17.10
2023-05-19T23:37:43.898Z,17.10
2023-05-19T23:40:11.435Z,17.20
2023-05-19T23:42:38.384Z,17.20
2023-05-19T23:45:05.986Z,17.20
2023-05-19T23:47:32.846Z,17.20
2023-05-19T23:49:59.630Z,17.20
2023-05-19T23:52:26.493Z,17.20
2023-05-19T23:54:53.344Z,17.20
2023-05-19T23:57:20.175Z,17.30
2023-05-19T23:59:47.112Z,17.20
